La Team Fly and Fun.

La team Fly & Fun

Les membres de Fly&Fun ont à cœur d’entretenir et de mettre en œuvre trois L-39 Albatros connus pour leur performance et maniabilité.

  • Identité

    Aymeric.

    Pilote de chasse dans l’aéronavale.
    Leader de la patrouille Fly & Fun
    6000h

    de vol

  • Identité

    Michel.

    Premier pilote de L39 en France.
    Il totalise plus de 12 000 heures de vol.

    12000h

    de vol

  • Identité

    Renan.

    Pilote de chasse dans l’armée de l’air.
    Instructeur voltige
    9000h

    de vol

  • Identité

    Stéphane.

    Responsable technique.
    20 ans d’expérience militaire sur Jaguar et Rafale.

    20ans

    d'expérience

METAR :

LFQA 021500Z AUTO 34011KT 9999 FEW022/// BKN049/// OVC100/// ///CB 18/15 Q1014


vue en direct sur l'aérodrome
mentions légales politique de confidentialité
Cochet Concept
cx